Search for airport 
image banner adimage banner adimage banner ad
image banner ad

L22 - Yucca Valley

Located in Yucca Valley, United States

ICAO - L22, IATA -

Data provided by Airmate  

General information

Coordinates: N34°7'47" W116°24'25"
Elevation is 3224 feet MSL.
Magnetic variation is 14° East
View others Airports in California

Operational data

Special qualification required
Current time UTC:
Current local time:
Weather at : KNXP - Twentynine Palms Self ( 29 km )
METAR: KNXP 231356Z AUTO 33003KT 6SM HZ FEW120 23/06 A3001 RMK AO2 SLP126 T02280056
TAF: TAF KNXP 2309/2409 VRB06KT 9999 SKC QNH2997INS FM232230 22008KT 9999 SKC QNH2984INS T22/2314Z T34/2323Z
View NOTAMs / SUP AIP / TFR affecting this airport [VIEW]
Communications frequencies: [VIEW]

Runways:

RWY identifierQFULength (ft)Width (ft)SurfaceLDA (ft)
0670°436360ASPH
24250°436360ASPH

Airport contact information

Address: Yucca Valley United States

Satellite view of L22